sensor_id;sensor_type;location;lat;lon;timestamp;temperature;humidity
5280;DHT22;2663;53.588;10.010;2023-07-29T00:01:28;20.00;99.90
5280;DHT22;2663;53.588;10.010;2023-07-29T00:03:55;20.00;99.90
5280;DHT22;2663;53.588;10.010;2023-07-29T00:06:23;19.90;99.90
5280;DHT22;2663;53.588;10.010;2023-07-29T00:08:50;19.90;99.90
5280;DHT22;2663;53.588;10.010;2023-07-29T00:11:16;19.90;99.90
5280;DHT22;2663;53.588;10.010;2023-07-29T00:13:43;19.90;99.90
5280;DHT22;2663;53.588;10.010;2023-07-29T00:16:10;19.80;99.90
5280;DHT22;2663;53.588;10.010;2023-07-29T00:18:37;19.80;99.90
5280;DHT22;2663;53.588;10.010;2023-07-29T00:21:04;19.80;99.90
5280;DHT22;2663;53.588;10.010;2023-07-29T00:23:30;19.70;99.90
5280;DHT22;2663;53.588;10.010;2023-07-29T00:25:57;19.70;99.90
5280;DHT22;2663;53.588;10.010;2023-07-29T00:28:24;19.70;99.90
5280;DHT22;2663;53.588;10.010;2023-07-29T00:30:51;19.60;99.90
5280;DHT22;2663;53.588;10.010;2023-07-29T00:33:17;19.60;99.90
5280;DHT22;2663;53.588;10.010;2023-07-29T00:35:44;19.60;99.90
5280;DHT22;2663;53.588;10.010;2023-07-29T00:38:11;19.60;99.90
5280;DHT22;2663;53.588;10.010;2023-07-29T00:40:38;19.60;99.90
5280;DHT22;2663;53.588;10.010;2023-07-29T00:43:04;19.60;99.90
5280;DHT22;2663;53.588;10.010;2023-07-29T00:45:32;19.60;99.90
5280;DHT22;2663;53.588;10.010;2023-07-29T00:48:03;19.60;99.90
5280;DHT22;2663;53.588;10.010;2023-07-29T00:50:31;19.60;99.90
5280;DHT22;2663;53.588;10.010;2023-07-29T00:52:58;19.60;99.90
5280;DHT22;2663;53.588;10.010;2023-07-29T00:55:25;19.60;99.90
5280;DHT22;2663;53.588;10.010;2023-07-29T00:57:52;19.60;99.90
5280;DHT22;2663;53.588;10.010;2023-07-29T01:00:21;19.60;99.90
5280;DHT22;2663;53.588;10.010;2023-07-29T01:02:48;19.70;99.90
5280;DHT22;2663;53.588;10.010;2023-07-29T01:05:16;19.70;99.90
5280;DHT22;2663;53.588;10.010;2023-07-29T01:07:54;21.10;99.90
5280;DHT22;2663;53.588;10.010;2023-07-29T01:14:41;19.60;99.90
5280;DHT22;2663;53.588;10.010;2023-07-29T01:17:15;19.70;99.90
5280;DHT22;2663;53.588;10.010;2023-07-29T01:20:07;19.60;99.90
5280;DHT22;2663;53.588;10.010;2023-07-29T01:22:35;19.60;99.90
5280;DHT22;2663;53.588;10.010;2023-07-29T01:25:05;19.60;99.90
5280;DHT22;2663;53.588;10.010;2023-07-29T01:27:32;19.60;99.90
5280;DHT22;2663;53.588;10.010;2023-07-29T01:30:00;19.60;99.90
5280;DHT22;2663;53.588;10.010;2023-07-29T01:32:36;19.60;99.90
5280;DHT22;2663;53.588;10.010;2023-07-29T01:35:14;19.60;99.90
5280;DHT22;2663;53.588;10.010;2023-07-29T01:37:46;19.60;99.90
5280;DHT22;2663;53.588;10.010;2023-07-29T01:40:14;19.60;99.90
5280;DHT22;2663;53.588;10.010;2023-07-29T01:42:41;19.60;99.90
5280;DHT22;2663;53.588;10.010;2023-07-29T01:45:08;19.70;99.90
5280;DHT22;2663;53.588;10.010;2023-07-29T01:47:36;19.70;99.90
5280;DHT22;2663;53.588;10.010;2023-07-29T01:50:03;19.70;99.90
5280;DHT22;2663;53.588;10.010;2023-07-29T01:52:30;19.80;99.90
5280;DHT22;2663;53.588;10.010;2023-07-29T01:54:57;19.80;99.90
5280;DHT22;2663;53.588;10.010;2023-07-29T01:57:23;20.00;99.90
5280;DHT22;2663;53.588;10.010;2023-07-29T01:59:50;20.00;99.90
5280;DHT22;2663;53.588;10.010;2023-07-29T02:02:17;20.10;99.90
5280;DHT22;2663;53.588;10.010;2023-07-29T02:04:44;20.10;99.90
5280;DHT22;2663;53.588;10.010;2023-07-29T02:07:12;20.10;99.90
5280;DHT22;2663;53.588;10.010;2023-07-29T02:09:38;20.10;99.90
5280;DHT22;2663;53.588;10.010;2023-07-29T02:12:05;20.10;99.90
5280;DHT22;2663;53.588;10.010;2023-07-29T02:14:33;20.10;99.90
5280;DHT22;2663;53.588;10.010;2023-07-29T02:17:00;20.10;99.90
5280;DHT22;2663;53.588;10.010;2023-07-29T02:19:27;20.10;99.90
5280;DHT22;2663;53.588;10.010;2023-07-29T02:21:54;20.10;99.90
5280;DHT22;2663;53.588;10.010;2023-07-29T02:24:20;20.10;99.90
5280;DHT22;2663;53.588;10.010;2023-07-29T02:26:47;20.10;99.90
5280;DHT22;2663;53.588;10.010;2023-07-29T02:29:14;20.10;99.90
5280;DHT22;2663;53.588;10.010;2023-07-29T02:31:41;20.10;99.90
5280;DHT22;2663;53.588;10.010;2023-07-29T02:34:07;20.10;99.90
5280;DHT22;2663;53.588;10.010;2023-07-29T02:36:34;20.00;99.90
5280;DHT22;2663;53.588;10.010;2023-07-29T02:39:01;20.00;99.90
5280;DHT22;2663;53.588;10.010;2023-07-29T02:41:28;20.00;99.90
5280;DHT22;2663;53.588;10.010;2023-07-29T02:43:55;20.10;99.90
5280;DHT22;2663;53.588;10.010;2023-07-29T02:46:21;20.10;99.90
5280;DHT22;2663;53.588;10.010;2023-07-29T02:48:49;20.10;99.90
5280;DHT22;2663;53.588;10.010;2023-07-29T02:51:15;20.00;99.90
5280;DHT22;2663;53.588;10.010;2023-07-29T02:53:42;20.80;99.90
5280;DHT22;2663;53.588;10.010;2023-07-29T02:56:09;20.00;99.90
5280;DHT22;2663;53.588;10.010;2023-07-29T02:58:37;20.00;99.90
5280;DHT22;2663;53.588;10.010;2023-07-29T03:01:05;20.00;99.90
5280;DHT22;2663;53.588;10.010;2023-07-29T03:03:32;20.00;99.90
5280;DHT22;2663;53.588;10.010;2023-07-29T03:06:05;20.00;99.90
5280;DHT22;2663;53.588;10.010;2023-07-29T03:08:32;20.00;99.90
5280;DHT22;2663;53.588;10.010;2023-07-29T03:11:04;19.90;99.90
5280;DHT22;2663;53.588;10.010;2023-07-29T03:13:31;19.90;99.90
5280;DHT22;2663;53.588;10.010;2023-07-29T03:16:17;19.90;99.90
5280;DHT22;2663;53.588;10.010;2023-07-29T03:18:44;20.00;99.90
5280;DHT22;2663;53.588;10.010;2023-07-29T03:21:11;20.00;99.90
5280;DHT22;2663;53.588;10.010;2023-07-29T03:23:38;19.90;99.90
5280;DHT22;2663;53.588;10.010;2023-07-29T03:26:05;19.90;99.90
5280;DHT22;2663;53.588;10.010;2023-07-29T03:28:42;19.90;99.90
5280;DHT22;2663;53.588;10.010;2023-07-29T03:31:10;19.90;99.90
5280;DHT22;2663;53.588;10.010;2023-07-29T03:33:36;19.90;99.90
5280;DHT22;2663;53.588;10.010;2023-07-29T03:36:03;19.80;99.90
5280;DHT22;2663;53.588;10.010;2023-07-29T03:38:30;19.80;99.90
5280;DHT22;2663;53.588;10.010;2023-07-29T03:40:59;19.80;99.90
5280;DHT22;2663;53.588;10.010;2023-07-29T03:43:26;19.80;99.90
5280;DHT22;2663;53.588;10.010;2023-07-29T03:45:52;19.80;99.90
5280;DHT22;2663;53.588;10.010;2023-07-29T03:48:19;19.80;99.90
5280;DHT22;2663;53.588;10.010;2023-07-29T03:50:46;19.70;99.90
5280;DHT22;2663;53.588;10.010;2023-07-29T03:53:12;19.70;99.90
5280;DHT22;2663;53.588;10.010;2023-07-29T03:55:39;19.80;99.90
5280;DHT22;2663;53.588;10.010;2023-07-29T03:58:06;19.80;99.90
5280;DHT22;2663;53.588;10.010;2023-07-29T04:00:33;19.80;99.90
5280;DHT22;2663;53.588;10.010;2023-07-29T04:02:59;19.80;99.90
5280;DHT22;2663;53.588;10.010;2023-07-29T04:05:26;19.80;99.90
5280;DHT22;2663;53.588;10.010;2023-07-29T04:07:54;19.80;99.90
5280;DHT22;2663;53.588;10.010;2023-07-29T04:10:20;19.80;99.90
5280;DHT22;2663;53.588;10.010;2023-07-29T04:12:47;19.80;99.90
5280;DHT22;2663;53.588;10.010;2023-07-29T04:15:14;19.80;99.90
5280;DHT22;2663;53.588;10.010;2023-07-29T04:17:41;19.80;99.90
5280;DHT22;2663;53.588;10.010;2023-07-29T04:20:08;19.90;99.90
5280;DHT22;2663;53.588;10.010;2023-07-29T04:22:35;19.90;99.90
5280;DHT22;2663;53.588;10.010;2023-07-29T04:25:02;19.90;99.90
5280;DHT22;2663;53.588;10.010;2023-07-29T04:27:31;20.00;99.90
5280;DHT22;2663;53.588;10.010;2023-07-29T04:29:58;19.80;99.90
5280;DHT22;2663;53.588;10.010;2023-07-29T04:32:24;19.70;99.90
5280;DHT22;2663;53.588;10.010;2023-07-29T04:34:52;19.60;99.90
5280;DHT22;2663;53.588;10.010;2023-07-29T04:37:19;19.60;99.90
5280;DHT22;2663;53.588;10.010;2023-07-29T04:39:45;19.50;99.90
5280;DHT22;2663;53.588;10.010;2023-07-29T04:42:13;19.40;99.90
5280;DHT22;2663;53.588;10.010;2023-07-29T04:44:39;19.40;99.90
5280;DHT22;2663;53.588;10.010;2023-07-29T04:47:08;19.40;99.90
5280;DHT22;2663;53.588;10.010;2023-07-29T04:49:35;19.30;99.90
5280;DHT22;2663;53.588;10.010;2023-07-29T04:52:01;19.30;99.90
5280;DHT22;2663;53.588;10.010;2023-07-29T04:54:28;19.30;99.90
5280;DHT22;2663;53.588;10.010;2023-07-29T04:56:55;19.20;99.90
5280;DHT22;2663;53.588;10.010;2023-07-29T04:59:21;19.20;99.90
5280;DHT22;2663;53.588;10.010;2023-07-29T05:01:48;19.20;99.90
5280;DHT22;2663;53.588;10.010;2023-07-29T05:04:16;19.10;99.90
5280;DHT22;2663;53.588;10.010;2023-07-29T05:06:42;19.10;99.90
5280;DHT22;2663;53.588;10.010;2023-07-29T05:09:14;19.10;99.90
5280;DHT22;2663;53.588;10.010;2023-07-29T05:11:40;19.00;99.90
5280;DHT22;2663;53.588;10.010;2023-07-29T05:14:07;19.00;99.90
5280;DHT22;2663;53.588;10.010;2023-07-29T05:16:36;19.00;99.90
5280;DHT22;2663;53.588;10.010;2023-07-29T05:19:03;19.00;99.90
5280;DHT22;2663;53.588;10.010;2023-07-29T05:21:30;19.00;99.90
5280;DHT22;2663;53.588;10.010;2023-07-29T05:23:56;19.10;99.90
5280;DHT22;2663;53.588;10.010;2023-07-29T05:26:23;19.00;99.90
5280;DHT22;2663;53.588;10.010;2023-07-29T05:28:50;19.00;99.90
5280;DHT22;2663;53.588;10.010;2023-07-29T05:31:17;19.10;99.90
5280;DHT22;2663;53.588;10.010;2023-07-29T05:33:44;19.20;99.90
5280;DHT22;2663;53.588;10.010;2023-07-29T05:36:11;19.30;99.90
5280;DHT22;2663;53.588;10.010;2023-07-29T05:38:37;19.30;99.90
5280;DHT22;2663;53.588;10.010;2023-07-29T05:41:04;19.30;99.90
5280;DHT22;2663;53.588;10.010;2023-07-29T05:43:31;19.30;99.90
5280;DHT22;2663;53.588;10.010;2023-07-29T05:45:57;19.30;99.90
5280;DHT22;2663;53.588;10.010;2023-07-29T05:48:24;19.20;99.90
5280;DHT22;2663;53.588;10.010;2023-07-29T05:50:51;19.20;99.90
5280;DHT22;2663;53.588;10.010;2023-07-29T05:53:17;20.40;99.90
5280;DHT22;2663;53.588;10.010;2023-07-29T05:55:44;19.20;99.90
5280;DHT22;2663;53.588;10.010;2023-07-29T05:58:11;20.50;99.90
5280;DHT22;2663;53.588;10.010;2023-07-29T06:00:38;19.30;99.90
5280;DHT22;2663;53.588;10.010;2023-07-29T06:03:04;19.30;99.90
5280;DHT22;2663;53.588;10.010;2023-07-29T06:05:31;19.50;99.90
5280;DHT22;2663;53.588;10.010;2023-07-29T06:07:58;19.50;99.90
5280;DHT22;2663;53.588;10.010;2023-07-29T06:10:24;19.60;99.90
5280;DHT22;2663;53.588;10.010;2023-07-29T06:12:51;19.70;99.90
5280;DHT22;2663;53.588;10.010;2023-07-29T06:15:18;19.60;99.90
5280;DHT22;2663;53.588;10.010;2023-07-29T06:17:48;19.70;99.90
5280;DHT22;2663;53.588;10.010;2023-07-29T06:20:15;19.00;99.90
5280;DHT22;2663;53.588;10.010;2023-07-29T06:22:42;19.80;99.90
5280;DHT22;2663;53.588;10.010;2023-07-29T06:25:09;19.80;99.90
5280;DHT22;2663;53.588;10.010;2023-07-29T06:27:36;19.80;99.90
5280;DHT22;2663;53.588;10.010;2023-07-29T06:30:03;19.80;99.90
5280;DHT22;2663;53.588;10.010;2023-07-29T06:32:30;19.90;99.90
5280;DHT22;2663;53.588;10.010;2023-07-29T06:34:57;19.90;99.90
5280;DHT22;2663;53.588;10.010;2023-07-29T06:37:23;20.00;99.90
5280;DHT22;2663;53.588;10.010;2023-07-29T06:39:50;20.10;99.90
5280;DHT22;2663;53.588;10.010;2023-07-29T06:42:17;20.10;99.90
5280;DHT22;2663;53.588;10.010;2023-07-29T06:44:43;20.30;99.90
5280;DHT22;2663;53.588;10.010;2023-07-29T06:47:12;20.30;99.90
5280;DHT22;2663;53.588;10.010;2023-07-29T06:49:39;20.30;99.90
5280;DHT22;2663;53.588;10.010;2023-07-29T06:52:05;20.40;99.90
5280;DHT22;2663;53.588;10.010;2023-07-29T06:54:32;20.40;99.90
5280;DHT22;2663;53.588;10.010;2023-07-29T06:56:59;20.50;99.90
5280;DHT22;2663;53.588;10.010;2023-07-29T06:59:25;20.50;99.90
5280;DHT22;2663;53.588;10.010;2023-07-29T07:01:52;20.60;99.90
5280;DHT22;2663;53.588;10.010;2023-07-29T07:04:19;20.60;99.90
5280;DHT22;2663;53.588;10.010;2023-07-29T07:06:46;20.60;99.90
5280;DHT22;2663;53.588;10.010;2023-07-29T07:09:12;20.60;99.90
5280;DHT22;2663;53.588;10.010;2023-07-29T07:11:39;20.60;99.90
5280;DHT22;2663;53.588;10.010;2023-07-29T07:14:06;20.50;99.90
5280;DHT22;2663;53.588;10.010;2023-07-29T07:16:33;20.50;99.90
5280;DHT22;2663;53.588;10.010;2023-07-29T07:19:00;20.60;99.90
5280;DHT22;2663;53.588;10.010;2023-07-29T07:21:26;20.50;99.90
5280;DHT22;2663;53.588;10.010;2023-07-29T07:23:53;20.60;99.90
5280;DHT22;2663;53.588;10.010;2023-07-29T07:26:20;20.60;99.90
5280;DHT22;2663;53.588;10.010;2023-07-29T07:28:46;20.50;99.90
5280;DHT22;2663;53.588;10.010;2023-07-29T07:31:13;20.50;99.90
5280;DHT22;2663;53.588;10.010;2023-07-29T07:33:40;20.50;99.90
5280;DHT22;2663;53.588;10.010;2023-07-29T07:36:06;20.60;99.90
5280;DHT22;2663;53.588;10.010;2023-07-29T07:38:33;20.50;99.90
5280;DHT22;2663;53.588;10.010;2023-07-29T07:41:00;20.40;99.90
5280;DHT22;2663;53.588;10.010;2023-07-29T07:43:27;20.40;99.90
5280;DHT22;2663;53.588;10.010;2023-07-29T07:46:01;20.50;99.90
5280;DHT22;2663;53.588;10.010;2023-07-29T07:48:28;20.60;99.90
5280;DHT22;2663;53.588;10.010;2023-07-29T07:50:55;20.60;99.90
5280;DHT22;2663;53.588;10.010;2023-07-29T07:53:21;20.70;99.90
5280;DHT22;2663;53.588;10.010;2023-07-29T07:55:48;20.80;99.90
5280;DHT22;2663;53.588;10.010;2023-07-29T07:58:15;20.70;99.90
5280;DHT22;2663;53.588;10.010;2023-07-29T08:00:42;20.60;99.90
5280;DHT22;2663;53.588;10.010;2023-07-29T08:03:08;20.60;99.90
5280;DHT22;2663;53.588;10.010;2023-07-29T08:05:35;20.40;99.90
5280;DHT22;2663;53.588;10.010;2023-07-29T08:08:02;20.60;99.90
5280;DHT22;2663;53.588;10.010;2023-07-29T08:10:29;20.20;99.90
5280;DHT22;2663;53.588;10.010;2023-07-29T08:12:56;20.20;99.90
5280;DHT22;2663;53.588;10.010;2023-07-29T08:15:22;20.10;99.90
5280;DHT22;2663;53.588;10.010;2023-07-29T08:17:49;20.10;99.90
5280;DHT22;2663;53.588;10.010;2023-07-29T08:20:16;20.10;99.90
5280;DHT22;2663;53.588;10.010;2023-07-29T08:22:43;20.20;99.90
5280;DHT22;2663;53.588;10.010;2023-07-29T08:25:10;20.30;99.90
5280;DHT22;2663;53.588;10.010;2023-07-29T08:27:36;20.20;99.90
5280;DHT22;2663;53.588;10.010;2023-07-29T08:30:03;20.20;99.90
5280;DHT22;2663;53.588;10.010;2023-07-29T08:32:31;20.10;99.90
5280;DHT22;2663;53.588;10.010;2023-07-29T08:34:59;20.10;99.90
5280;DHT22;2663;53.588;10.010;2023-07-29T08:37:26;21.60;99.90
5280;DHT22;2663;53.588;10.010;2023-07-29T08:39:53;20.10;99.90
5280;DHT22;2663;53.588;10.010;2023-07-29T08:42:22;20.10;99.90
5280;DHT22;2663;53.588;10.010;2023-07-29T08:44:50;20.10;99.90
5280;DHT22;2663;53.588;10.010;2023-07-29T08:47:18;20.20;99.90
5280;DHT22;2663;53.588;10.010;2023-07-29T08:49:46;20.30;99.90
5280;DHT22;2663;53.588;10.010;2023-07-29T08:52:14;20.30;99.90
5280;DHT22;2663;53.588;10.010;2023-07-29T08:54:41;20.30;99.90
5280;DHT22;2663;53.588;10.010;2023-07-29T08:57:09;20.20;99.90
5280;DHT22;2663;53.588;10.010;2023-07-29T08:59:37;20.10;99.90
5280;DHT22;2663;53.588;10.010;2023-07-29T09:02:04;20.00;99.90
5280;DHT22;2663;53.588;10.010;2023-07-29T09:04:31;20.10;99.90
5280;DHT22;2663;53.588;10.010;2023-07-29T09:06:58;20.20;99.90
5280;DHT22;2663;53.588;10.010;2023-07-29T09:09:25;20.20;99.90
5280;DHT22;2663;53.588;10.010;2023-07-29T09:11:53;20.30;99.90
5280;DHT22;2663;53.588;10.010;2023-07-29T09:14:20;20.30;99.90
5280;DHT22;2663;53.588;10.010;2023-07-29T09:16:46;20.30;99.90
5280;DHT22;2663;53.588;10.010;2023-07-29T09:19:13;20.40;99.90
5280;DHT22;2663;53.588;10.010;2023-07-29T09:21:41;20.60;99.90
5280;DHT22;2663;53.588;10.010;2023-07-29T09:24:08;20.70;99.90
5280;DHT22;2663;53.588;10.010;2023-07-29T09:26:35;20.70;99.90
5280;DHT22;2663;53.588;10.010;2023-07-29T09:29:03;20.80;99.90
5280;DHT22;2663;53.588;10.010;2023-07-29T09:31:30;20.70;99.90
5280;DHT22;2663;53.588;10.010;2023-07-29T09:34:02;20.70;99.90
5280;DHT22;2663;53.588;10.010;2023-07-29T09:36:33;20.60;99.90
5280;DHT22;2663;53.588;10.010;2023-07-29T09:39:02;20.70;99.90
5280;DHT22;2663;53.588;10.010;2023-07-29T09:41:29;20.80;99.90
5280;DHT22;2663;53.588;10.010;2023-07-29T09:44:02;20.90;99.90
5280;DHT22;2663;53.588;10.010;2023-07-29T09:46:34;21.00;99.90
5280;DHT22;2663;53.588;10.010;2023-07-29T09:49:03;20.90;99.90
5280;DHT22;2663;53.588;10.010;2023-07-29T09:51:30;20.80;99.90
5280;DHT22;2663;53.588;10.010;2023-07-29T09:53:57;21.10;99.90
5280;DHT22;2663;53.588;10.010;2023-07-29T09:56:26;21.20;99.90
5280;DHT22;2663;53.588;10.010;2023-07-29T09:58:55;21.40;99.90
5280;DHT22;2663;53.588;10.010;2023-07-29T10:01:24;21.40;99.90
5280;DHT22;2663;53.588;10.010;2023-07-29T10:03:51;21.60;99.90
5280;DHT22;2663;53.588;10.010;2023-07-29T10:06:18;21.60;99.90
5280;DHT22;2663;53.588;10.010;2023-07-29T10:08:45;21.70;99.90
5280;DHT22;2663;53.588;10.010;2023-07-29T10:11:14;21.80;99.90
5280;DHT22;2663;53.588;10.010;2023-07-29T10:13:41;21.80;99.90
5280;DHT22;2663;53.588;10.010;2023-07-29T10:16:13;21.90;99.90
5280;DHT22;2663;53.588;10.010;2023-07-29T10:18:42;21.80;99.90
5280;DHT22;2663;53.588;10.010;2023-07-29T10:21:10;21.70;99.90
5280;DHT22;2663;53.588;10.010;2023-07-29T10:23:39;21.90;99.90
5280;DHT22;2663;53.588;10.010;2023-07-29T10:26:10;21.90;99.90
5280;DHT22;2663;53.588;10.010;2023-07-29T10:28:40;21.90;99.90
5280;DHT22;2663;53.588;10.010;2023-07-29T10:31:09;22.00;99.90
5280;DHT22;2663;53.588;10.010;2023-07-29T10:33:37;22.00;99.90
5280;DHT22;2663;53.588;10.010;2023-07-29T10:36:05;22.00;99.90
5280;DHT22;2663;53.588;10.010;2023-07-29T10:38:32;21.80;99.90
5280;DHT22;2663;53.588;10.010;2023-07-29T10:40:59;21.70;99.90
5280;DHT22;2663;53.588;10.010;2023-07-29T10:43:35;21.70;99.90
5280;DHT22;2663;53.588;10.010;2023-07-29T10:46:19;21.80;99.90
5280;DHT22;2663;53.588;10.010;2023-07-29T10:48:56;21.70;99.90
5280;DHT22;2663;53.588;10.010;2023-07-29T10:51:27;21.70;99.90
5280;DHT22;2663;53.588;10.010;2023-07-29T10:53:58;21.70;99.90
5280;DHT22;2663;53.588;10.010;2023-07-29T10:56:35;21.70;99.90
5280;DHT22;2663;53.588;10.010;2023-07-29T10:59:31;21.70;99.90
5280;DHT22;2663;53.588;10.010;2023-07-29T11:02:00;21.80;99.90
5280;DHT22;2663;53.588;10.010;2023-07-29T11:04:29;21.80;99.90
5280;DHT22;2663;53.588;10.010;2023-07-29T11:12:42;21.80;99.90
5280;DHT22;2663;53.588;10.010;2023-07-29T11:17:45;21.80;99.90
5280;DHT22;2663;53.588;10.010;2023-07-29T11:20:13;21.80;99.90
5280;DHT22;2663;53.588;10.010;2023-07-29T11:22:40;22.00;99.90
5280;DHT22;2663;53.588;10.010;2023-07-29T11:25:09;22.10;99.90
5280;DHT22;2663;53.588;10.010;2023-07-29T11:27:37;21.90;99.90
5280;DHT22;2663;53.588;10.010;2023-07-29T11:30:06;21.90;99.90
5280;DHT22;2663;53.588;10.010;2023-07-29T11:32:34;21.90;99.90
5280;DHT22;2663;53.588;10.010;2023-07-29T11:35:21;22.00;99.90
5280;DHT22;2663;53.588;10.010;2023-07-29T11:37:50;21.80;99.90
5280;DHT22;2663;53.588;10.010;2023-07-29T11:40:18;21.70;99.90
5280;DHT22;2663;53.588;10.010;2023-07-29T11:42:47;21.90;99.90
5280;DHT22;2663;53.588;10.010;2023-07-29T11:45:14;22.10;99.90
5280;DHT22;2663;53.588;10.010;2023-07-29T11:47:44;22.30;99.90
5280;DHT22;2663;53.588;10.010;2023-07-29T11:50:12;22.60;99.90
5280;DHT22;2663;53.588;10.010;2023-07-29T11:52:44;22.80;99.90
5280;DHT22;2663;53.588;10.010;2023-07-29T11:55:13;22.90;99.90
5280;DHT22;2663;53.588;10.010;2023-07-29T11:57:42;23.00;99.90
5280;DHT22;2663;53.588;10.010;2023-07-29T12:00:10;23.00;99.90
5280;DHT22;2663;53.588;10.010;2023-07-29T12:02:40;23.00;99.90
5280;DHT22;2663;53.588;10.010;2023-07-29T12:05:09;23.10;99.90
5280;DHT22;2663;53.588;10.010;2023-07-29T12:07:39;23.40;99.90
5280;DHT22;2663;53.588;10.010;2023-07-29T12:10:06;23.50;99.90
5280;DHT22;2663;53.588;10.010;2023-07-29T12:12:37;23.30;99.90
5280;DHT22;2663;53.588;10.010;2023-07-29T12:15:04;23.40;99.90
5280;DHT22;2663;53.588;10.010;2023-07-29T12:17:32;23.50;99.90
5280;DHT22;2663;53.588;10.010;2023-07-29T12:20:08;23.30;99.90
5280;DHT22;2663;53.588;10.010;2023-07-29T12:22:35;23.00;99.90
5280;DHT22;2663;53.588;10.010;2023-07-29T12:25:03;23.00;99.90
5280;DHT22;2663;53.588;10.010;2023-07-29T12:27:30;23.00;99.90
5280;DHT22;2663;53.588;10.010;2023-07-29T12:29:58;23.10;99.90
5280;DHT22;2663;53.588;10.010;2023-07-29T12:32:29;23.10;99.90
5280;DHT22;2663;53.588;10.010;2023-07-29T12:34:56;23.30;99.90
5280;DHT22;2663;53.588;10.010;2023-07-29T12:37:31;23.90;99.90
5280;DHT22;2663;53.588;10.010;2023-07-29T12:39:59;23.60;99.90
5280;DHT22;2663;53.588;10.010;2023-07-29T12:42:25;23.70;99.90
5280;DHT22;2663;53.588;10.010;2023-07-29T12:44:52;23.70;99.90
5280;DHT22;2663;53.588;10.010;2023-07-29T12:47:19;23.70;99.90
5280;DHT22;2663;53.588;10.010;2023-07-29T12:49:45;23.60;99.90
5280;DHT22;2663;53.588;10.010;2023-07-29T12:52:12;23.60;99.90
5280;DHT22;2663;53.588;10.010;2023-07-29T12:54:39;23.70;99.90
5280;DHT22;2663;53.588;10.010;2023-07-29T12:57:06;23.70;99.90
5280;DHT22;2663;53.588;10.010;2023-07-29T12:59:33;23.80;99.90
5280;DHT22;2663;53.588;10.010;2023-07-29T13:02:00;24.00;99.90
5280;DHT22;2663;53.588;10.010;2023-07-29T13:04:26;23.90;99.90
5280;DHT22;2663;53.588;10.010;2023-07-29T13:06:53;23.90;99.90
5280;DHT22;2663;53.588;10.010;2023-07-29T13:09:19;23.60;99.90
5280;DHT22;2663;53.588;10.010;2023-07-29T13:11:46;23.80;99.90
5280;DHT22;2663;53.588;10.010;2023-07-29T13:14:13;23.90;99.90
5280;DHT22;2663;53.588;10.010;2023-07-29T13:16:40;24.00;99.90
5280;DHT22;2663;53.588;10.010;2023-07-29T13:19:07;24.80;99.90
5280;DHT22;2663;53.588;10.010;2023-07-29T13:21:34;24.20;99.90
5280;DHT22;2663;53.588;10.010;2023-07-29T13:24:00;23.80;99.90
5280;DHT22;2663;53.588;10.010;2023-07-29T13:26:27;23.80;99.90
5280;DHT22;2663;53.588;10.010;2023-07-29T13:28:54;23.80;99.90
5280;DHT22;2663;53.588;10.010;2023-07-29T13:31:22;23.90;99.90
5280;DHT22;2663;53.588;10.010;2023-07-29T13:33:49;23.70;99.90
5280;DHT22;2663;53.588;10.010;2023-07-29T13:36:15;23.50;99.90
5280;DHT22;2663;53.588;10.010;2023-07-29T13:38:42;23.50;99.90
5280;DHT22;2663;53.588;10.010;2023-07-29T13:41:08;23.70;99.90
5280;DHT22;2663;53.588;10.010;2023-07-29T13:43:35;23.70;99.90
5280;DHT22;2663;53.588;10.010;2023-07-29T13:46:02;23.70;99.90
5280;DHT22;2663;53.588;10.010;2023-07-29T13:48:29;23.80;99.90
5280;DHT22;2663;53.588;10.010;2023-07-29T13:50:55;23.70;99.90
5280;DHT22;2663;53.588;10.010;2023-07-29T13:53:22;23.70;99.90
5280;DHT22;2663;53.588;10.010;2023-07-29T13:55:49;23.80;99.90
5280;DHT22;2663;53.588;10.010;2023-07-29T13:58:15;23.90;99.90
5280;DHT22;2663;53.588;10.010;2023-07-29T14:00:42;24.10;99.90
5280;DHT22;2663;53.588;10.010;2023-07-29T14:03:09;24.20;99.90
5280;DHT22;2663;53.588;10.010;2023-07-29T14:05:36;24.30;99.90
5280;DHT22;2663;53.588;10.010;2023-07-29T14:08:02;24.10;99.90
5280;DHT22;2663;53.588;10.010;2023-07-29T14:10:29;24.30;99.90
5280;DHT22;2663;53.588;10.010;2023-07-29T14:12:56;24.20;99.90
5280;DHT22;2663;53.588;10.010;2023-07-29T14:15:22;24.20;99.90
5280;DHT22;2663;53.588;10.010;2023-07-29T14:17:49;24.40;99.90
5280;DHT22;2663;53.588;10.010;2023-07-29T14:20:16;24.50;99.90
5280;DHT22;2663;53.588;10.010;2023-07-29T14:22:45;24.50;99.90
5280;DHT22;2663;53.588;10.010;2023-07-29T14:25:12;24.50;99.90
5280;DHT22;2663;53.588;10.010;2023-07-29T14:27:39;24.60;99.90
5280;DHT22;2663;53.588;10.010;2023-07-29T14:30:06;24.70;99.90
5280;DHT22;2663;53.588;10.010;2023-07-29T14:32:33;24.80;99.90
5280;DHT22;2663;53.588;10.010;2023-07-29T14:35:00;25.00;99.90
5280;DHT22;2663;53.588;10.010;2023-07-29T14:37:30;24.90;99.70
5280;DHT22;2663;53.588;10.010;2023-07-29T14:40:01;24.50;99.90
5280;DHT22;2663;53.588;10.010;2023-07-29T14:42:28;24.50;99.90
5280;DHT22;2663;53.588;10.010;2023-07-29T14:44:55;24.60;99.90
5280;DHT22;2663;53.588;10.010;2023-07-29T14:47:21;24.70;99.70
5280;DHT22;2663;53.588;10.010;2023-07-29T14:49:48;24.80;99.90
5280;DHT22;2663;53.588;10.010;2023-07-29T14:52:15;24.70;99.80
5280;DHT22;2663;53.588;10.010;2023-07-29T14:54:41;24.70;99.90
5280;DHT22;2663;53.588;10.010;2023-07-29T14:57:09;24.70;99.50
5280;DHT22;2663;53.588;10.010;2023-07-29T14:59:36;24.90;99.30
5280;DHT22;2663;53.588;10.010;2023-07-29T15:02:03;25.00;99.70
5280;DHT22;2663;53.588;10.010;2023-07-29T15:04:30;25.00;99.80
5280;DHT22;2663;53.588;10.010;2023-07-29T15:06:57;25.30;99.20
5280;DHT22;2663;53.588;10.010;2023-07-29T15:09:24;25.40;98.70
5280;DHT22;2663;53.588;10.010;2023-07-29T15:11:51;25.40;98.50
5280;DHT22;2663;53.588;10.010;2023-07-29T15:14:18;25.40;98.10
5280;DHT22;2663;53.588;10.010;2023-07-29T15:16:45;25.40;98.20
5280;DHT22;2663;53.588;10.010;2023-07-29T15:19:12;25.70;98.20
5280;DHT22;2663;53.588;10.010;2023-07-29T15:21:44;25.70;97.90
5280;DHT22;2663;53.588;10.010;2023-07-29T15:24:11;25.60;97.30
5280;DHT22;2663;53.588;10.010;2023-07-29T15:26:38;25.70;97.70
5280;DHT22;2663;53.588;10.010;2023-07-29T15:29:05;25.70;97.20
5280;DHT22;2663;53.588;10.010;2023-07-29T15:31:34;25.70;97.20
5280;DHT22;2663;53.588;10.010;2023-07-29T15:34:01;25.70;97.30
5280;DHT22;2663;53.588;10.010;2023-07-29T15:36:28;25.90;97.10
5280;DHT22;2663;53.588;10.010;2023-07-29T15:38:55;25.90;96.90
5280;DHT22;2663;53.588;10.010;2023-07-29T15:41:22;25.80;96.90
5280;DHT22;2663;53.588;10.010;2023-07-29T15:43:48;25.70;97.10
5280;DHT22;2663;53.588;10.010;2023-07-29T15:46:15;25.60;96.60
5280;DHT22;2663;53.588;10.010;2023-07-29T15:48:42;25.40;96.50
5280;DHT22;2663;53.588;10.010;2023-07-29T15:51:08;25.40;96.30
5280;DHT22;2663;53.588;10.010;2023-07-29T15:53:35;25.40;96.40
5280;DHT22;2663;53.588;10.010;2023-07-29T15:56:02;25.50;96.40
5280;DHT22;2663;53.588;10.010;2023-07-29T15:58:28;25.40;96.50
5280;DHT22;2663;53.588;10.010;2023-07-29T16:00:55;25.10;96.50